ADDS METAR Data INFO
IDs: Format: Raw Decoded Include TAF

Data at: 1959 UTC 19 Oct 2017

KBFM 191953Z 06005KT 10SM FEW049 27/17 A3017 RMK AO2 SLP214 T02720172
KBFM 191853Z 07005KT 10SM SCT032 27/17 A3019 RMK AO2 SLP222 T02720172
KBFM 191753Z 06003KT 10SM FEW050 26/18 A3021 RMK AO2 SLP231 T02560178 10256 20172 58012
KBFM 191653Z 02006KT 10SM FEW050 24/18 A3024 RMK AO2 SLP239 T02440178
KBFM 191553Z 06006KT 10SM CLR 23/17 A3025 RMK AO2 SLP243 T02330172
KBFM 191453Z 01004KT 10SM CLR 21/16 A3025 RMK AO2 SLP242 T02110161 53019
KBFM 191353Z 03007KT 10SM CLR 19/16 A3023 RMK AO2 SLP236 T01940156
KBFM 191253Z 36005KT 10SM CLR 18/15 A3021 RMK AO2 SLP228 T01830150
KBFM 191153Z 03008KT 10SM CLR 18/14 A3019 RMK AO2 SLP224 T01780144 10194 20156 51011
KBFM 191053Z 02005KT 10SM FEW045 18/14 A3019 RMK AO2 SLP223 T01780139
KBFM 190953Z 04004KT 10SM CLR 19/15 A3017 RMK AO2 SLP216 T01890150
KBFM 190853Z 05005KT 10SM CLR 19/15 A3016 RMK AO2 SLP213 T01940150 58012
KBFM 190822Z 05007KT 10SM CLR 19/14 A3017 RMK AO2 T01890144
KBFM 190753Z AUTO 02004KT 10SM CLR 17/14 A3018 RMK AO2 SLP218 T01670144
KBFM 190653Z AUTO 33006KT 10SM CLR 16/14 A3019 RMK AO2 SLP222 T01560144
KBFM 190553Z AUTO 34005KT 10SM CLR 17/14 A3019 RMK AO2 SLP224 T01670144 10228 20167 402440161 57010
KBFM 190453Z 06007KT 10SM CLR 20/16 A3021 RMK AO2 SLP228 T02000161
KBFM 190353Z 05008KT 10SM CLR 21/16 A3021 RMK AO2 SLP230 T02060161
KBFM 190253Z 04007KT 10SM CLR 21/16 A3022 RMK AO2 SLP234 T02110156 51013
KBFM 190153Z 05008KT 10SM CLR 22/15 A3021 RMK AO2 SLP230 T02170150
KBFM 190053Z 05007KT 10SM CLR 22/14 A3020 RMK AO2 SLP225 T02220144
KBFM 182353Z 05008KT 10SM CLR 23/13 A3018 RMK AO2 SLP221 T02280133 10244 20217 53006
KBFM 182253Z 03009KT 10SM CLR 23/13 A3017 RMK AO2 SLP215 T02330133
KBFM 182153Z 03006KT 10SM CLR 24/12 A3017 RMK AO2 SLP214 T02440122
KBFM 182053Z 03005KT 10SM CLR 24/12 A3017 RMK AO2 SLP215 T02440122 56020
KBFM 181953Z 03005KT 10SM CLR 24/12 A3018 RMK AO2 SLP220 T02390117
KBFM 181853Z 05005KT 10SM CLR 23/11 A3020 RMK AO2 SLP224 T02280106
KBFM 181753Z VRB05KT 10SM CLR 22/11 A3023 RMK AO2 SLP235 T02220111 10222 20161 58012
KBFM 181653Z 04007KT 10SM CLR 21/11 A3024 RMK AO2 SLP240 T02060106
KBFM 181553Z VRB06KT 10SM CLR 19/10 A3026 RMK AO2 SLP246 T01940100
KBFM 181453Z 06008KT 10SM CLR 19/09 A3026 RMK AO2 SLP246 T01890094 51009
KBFM 181353Z 04008KT 10SM CLR 17/09 A3025 RMK AO2 SLP244 T01720094
KBFM 181253Z 03007KT 10SM CLR 16/10 A3024 RMK AO2 SLP241 T01610100
KBFM 181153Z 05009KT 10SM CLR 17/11 A3023 RMK AO2 SLP237 T01670111 10189 20161 51018
KBFM 181053Z 04010G18KT 10SM CLR 17/10 A3021 RMK AO2 SLP231 T01720100
KBFM 180953Z 01005KT 10SM CLR 17/11 A3020 RMK AO2 SLP226 T01670106
KBFM 180853Z 06011KT 10SM CLR 18/11 A3018 RMK AO2 SLP219 T01830106 58005